Time;durP1;ratioP1;P1;durP2;ratioP2;P2;SDS_P1;SDS_P2;PMS_P1;PMS_P2;Temp;Humidity;BMP_temperature;BMP_pressure;BME280_temperature;BME280_humidity;BME280_pressure;Samples;Min_cycle;Max_cycle;Signal;HPM_P1;HPM_P2
2022/06/17 00:01:59;;;;;;;1.10;1.10;;;25.50;51.20;;;;;;5111285;28;20058;-67
2022/06/17 00:04:26;;;;;;;1.02;0.98;;;25.50;51.20;;;;;;5093173;28;20135;-67
2022/06/17 00:07:03;;;;;;;1.10;1.10;;;25.50;51.20;;;;;;5110334;28;20542;-67
2022/06/17 00:09:33;;;;;;;1.00;1.00;;;25.50;51.30;;;;;;5108832;28;20083;-67
2022/06/17 00:12:00;;;;;;;;;;;25.50;51.30;;;;;;5090513;28;20052;-66
2022/06/17 00:14:32;;;;;;;1.42;1.33;;;25.50;51.30;;;;;;5090188;28;20447;-67
2022/06/17 00:17:10;;;;;;;1.02;1.02;;;25.50;51.30;;;;;;5088971;28;20074;-66
2022/06/17 00:19:38;;;;;;;0.90;0.90;;;25.50;51.30;;;;;;5090521;28;20083;-66
2022/06/17 00:22:05;;;;;;;0.90;0.90;;;25.50;51.30;;;;;;5088699;28;20060;-67
2022/06/17 00:24:34;;;;;;;0.85;0.85;;;25.50;51.30;;;;;;5090058;28;20203;-67
2022/06/17 00:27:01;;;;;;;1.33;0.95;;;25.50;51.40;;;;;;5097428;28;20043;-67
2022/06/17 00:29:30;;;;;;;0.80;0.80;;;25.50;51.40;;;;;;5110728;28;20113;-68
2022/06/17 00:32:00;;;;;;;0.93;0.93;;;25.50;51.40;;;;;;5109998;28;20531;-66
2022/06/17 00:34:28;;;;;;;0.93;0.90;;;25.40;51.30;;;;;;5110723;28;20067;-66
2022/06/17 00:36:58;;;;;;;0.90;0.90;;;25.40;51.30;;;;;;5110008;28;20128;-67
2022/06/17 00:39:30;;;;;;;1.02;1.02;;;25.40;51.30;;;;;;5110573;28;20071;-66
2022/06/17 00:42:05;;;;;;;0.88;0.88;;;25.40;51.30;;;;;;5108135;28;20069;-67
2022/06/17 00:44:59;;;;;;;1.10;1.00;;;25.40;51.30;;;;;;5111189;27;20071;-67
2022/06/17 00:47:39;;;;;;;0.80;0.80;;;25.40;51.30;;;;;;5097015;28;20048;-66
2022/06/17 00:50:33;;;;;;;0.95;0.95;;;25.40;51.30;;;;;;5090529;28;20040;-67
2022/06/17 00:53:22;;;;;;;1.42;1.23;;;25.40;51.30;;;;;;5090411;28;20052;-67
2022/06/17 00:56:03;;;;;;;1.00;1.00;;;25.40;51.40;;;;;;5088484;28;20056;-67
2022/06/17 00:58:55;;;;;;;0.80;0.80;;;25.40;51.40;;;;;;5090070;28;20044;-67
2022/06/17 01:01:23;;;;;;;0.90;0.90;;;25.40;51.40;;;;;;5089936;28;20080;-67
2022/06/17 01:03:55;;;;;;;1.10;1.10;;;25.40;51.40;;;;;;5089834;28;20052;-67
2022/06/17 01:06:27;;;;;;;0.90;0.90;;;25.40;51.40;;;;;;5090038;28;20480;-67
2022/06/17 01:11:46;;;;;;;1.05;1.02;;;25.40;51.50;;;;;;5089661;28;20121;-67
2022/06/17 01:14:18;;;;;;;0.80;0.80;;;25.40;51.50;;;;;;5090098;28;20070;-66
2022/06/17 01:16:48;;;;;;;0.90;0.90;;;25.40;51.50;;;;;;5089869;28;20083;-67
2022/06/17 01:19:27;;;;;;;0.85;0.85;;;25.40;51.50;;;;;;5089684;28;20127;-66
2022/06/17 01:22:23;;;;;;;3.35;0.85;;;25.30;51.40;;;;;;5089950;28;20462;-67
2022/06/17 01:24:53;;;;;;;0.80;0.80;;;25.30;51.50;;;;;;5089737;28;20044;-67
2022/06/17 01:27:25;;;;;;;1.08;0.88;;;25.30;52.00;;;;;;5089578;28;20554;-67
2022/06/17 01:29:52;;;;;;;1.15;0.82;;;25.40;51.60;;;;;;5090009;28;20045;-67
2022/06/17 01:32:25;;;;;;;1.05;0.85;;;25.30;51.50;;;;;;5089400;28;20101;-67
2022/06/17 01:34:54;;;;;;;1.20;1.20;;;25.30;51.50;;;;;;5088704;28;20484;-67
2022/06/17 01:37:22;;;;;;;0.98;0.90;;;25.30;51.50;;;;;;5088855;28;20424;-67
2022/06/17 01:39:49;;;;;;;1.10;1.10;;;25.30;51.50;;;;;;5089092;28;20127;-67
2022/06/17 01:42:18;;;;;;;0.60;0.60;;;25.30;51.60;;;;;;5088146;28;20058;-67
2022/06/17 01:44:45;;;;;;;1.00;1.00;;;25.30;51.60;;;;;;5088264;28;20067;-66
2022/06/17 01:47:19;;;;;;;0.57;0.57;;;25.30;51.60;;;;;;5087631;28;20052;-66
2022/06/17 01:49:55;;;;;;;1.08;1.08;;;25.30;51.60;;;;;;5088553;28;20445;-67
2022/06/17 01:52:33;;;;;;;0.80;0.80;;;25.30;51.70;;;;;;5088384;28;20079;-67
2022/06/17 01:55:07;;;;;;;0.98;0.98;;;25.20;51.60;;;;;;5088448;28;20455;-67
2022/06/17 01:57:44;;;;;;;0.77;0.77;;;25.20;51.60;;;;;;5086852;28;20424;-67
2022/06/17 02:00:22;;;;;;;1.27;1.00;;;25.20;51.60;;;;;;5088613;28;20400;-67
2022/06/17 02:02:55;;;;;;;0.82;0.82;;;25.20;51.60;;;;;;5087894;28;20093;-67
2022/06/17 02:05:24;;;;;;;0.57;0.57;;;25.20;51.60;;;;;;5087988;28;20098;-66
2022/06/17 02:08:00;;;;;;;1.00;0.90;;;25.20;51.60;;;;;;5087926;28;20564;-67
2022/06/17 02:10:34;;;;;;;0.85;0.85;;;25.20;51.50;;;;;;5087452;28;20079;-67
2022/06/17 02:13:04;;;;;;;0.95;0.93;;;25.30;51.60;;;;;;5087724;28;20081;-67
2022/06/17 02:15:31;;;;;;;;;;;25.20;51.60;;;;;;5087309;28;20055;-67
2022/06/17 02:18:01;;;;;;;0.80;0.80;;;25.20;51.60;;;;;;5088465;28;20002;-67
2022/06/17 02:20:28;;;;;;;0.70;0.70;;;25.20;51.60;;;;;;5088592;28;20079;-67
2022/06/17 02:23:02;;;;;;;0.68;0.68;;;25.20;51.60;;;;;;5088626;28;20060;-67
2022/06/17 02:25:35;;;;;;;1.60;0.98;;;25.20;51.60;;;;;;5087355;28;20098;-67
2022/06/17 02:28:05;;;;;;;0.90;0.90;;;25.20;51.60;;;;;;5088258;28;20097;-67
2022/06/17 02:30:33;;;;;;;0.70;0.70;;;25.20;51.60;;;;;;5105355;28;20479;-66
2022/06/17 02:33:03;;;;;;;0.90;0.90;;;25.20;51.70;;;;;;5108657;28;20051;-67
2022/06/17 02:35:42;;;;;;;;;;;25.20;51.60;;;;;;5109684;28;20047;-67
2022/06/17 02:38:52;;;;;;;0.70;0.70;;;25.20;51.70;;;;;;5109711;28;19978;-67
2022/06/17 02:41:20;;;;;;;0.85;0.85;;;25.20;51.70;;;;;;5108709;28;20457;-67
2022/06/17 02:43:54;;;;;;;0.80;0.80;;;25.10;51.60;;;;;;5108762;28;20075;-66
2022/06/17 02:46:31;;;;;;;0.80;0.80;;;25.20;51.70;;;;;;5104554;28;20412;-66
2022/06/17 02:49:03;;;;;;;0.82;0.82;;;25.10;51.60;;;;;;5087526;28;20044;-67
2022/06/17 02:51:33;;;;;;;0.82;0.80;;;25.20;51.70;;;;;;5087890;28;20139;-67
2022/06/17 02:54:02;;;;;;;1.45;0.90;;;25.10;51.70;;;;;;5087366;28;20048;-67
2022/06/17 02:56:31;;;;;;;0.90;0.90;;;25.10;51.70;;;;;;5087430;28;20044;-66
2022/06/17 02:59:25;;;;;;;0.83;0.83;;;25.10;51.70;;;;;;5086104;28;20612;-67
2022/06/17 03:02:00;;;;;;;0.60;0.60;;;25.10;51.70;;;;;;5087697;28;20097;-68
2022/06/17 03:04:31;;;;;;;0.85;0.85;;;25.10;51.70;;;;;;5087283;28;20104;-67
2022/06/17 03:06:59;;;;;;;0.90;0.90;;;25.10;51.70;;;;;;5087409;28;20052;-67
2022/06/17 03:09:33;;;;;;;0.93;0.90;;;25.10;51.70;;;;;;5087486;28;20123;-66
2022/06/17 03:12:18;;;;;;;0.68;0.68;;;25.10;51.70;;;;;;5087695;28;20262;-67
2022/06/17 03:15:08;;;;;;;0.65;0.65;;;25.10;51.70;;;;;;5086962;28;20052;-66
2022/06/17 03:17:40;;;;;;;1.17;0.98;;;25.20;51.70;;;;;;5101254;28;20083;-66
2022/06/17 03:20:13;;;;;;;0.68;0.68;;;25.20;51.70;;;;;;5089964;28;20075;-67
2022/06/17 03:22:41;;;;;;;0.70;0.70;;;25.20;51.70;;;;;;5105390;28;20055;-66
2022/06/17 03:25:23;;;;;;;0.70;0.70;;;25.20;51.60;;;;;;5111599;28;20139;-66
2022/06/17 03:28:00;;;;;;;1.13;1.02;;;25.20;51.60;;;;;;5111866;28;20079;-66
2022/06/17 03:30:33;;;;;;;0.90;0.90;;;25.20;51.50;;;;;;5111079;28;20541;-66
2022/06/17 03:33:24;;;;;;;0.88;0.88;;;25.20;51.50;;;;;;5109306;28;20464;-66
2022/06/17 03:35:57;;;;;;;0.88;0.88;;;25.30;51.50;;;;;;5097155;28;20044;-66
2022/06/17 03:38:46;;;;;;;0.73;0.73;;;25.30;51.40;;;;;;5097886;28;20079;-66
2022/06/17 03:41:36;;;;;;;0.80;0.80;;;25.30;51.30;;;;;;5098685;28;20044;-66
2022/06/17 03:44:12;;;;;;;0.60;0.60;;;25.40;51.30;;;;;;5096764;28;20537;-66
2022/06/17 03:47:03;;;;;;;0.68;0.68;;;25.40;51.30;;;;;;5103008;28;20602;-66
2022/06/17 03:49:42;;;;;;;0.50;0.50;;;25.40;51.20;;;;;;5098588;28;20090;-66
2022/06/17 03:52:25;;;;;;;0.52;0.52;;;25.40;51.10;;;;;;5100356;28;20204;-66
2022/06/17 03:54:53;;;;;;;1.20;0.95;;;25.40;51.00;;;;;;5091122;28;20089;-66
2022/06/17 03:57:20;;;;;;;0.60;0.60;;;25.40;51.00;;;;;;5090961;28;20469;-66
2022/06/17 03:59:49;;;;;;;0.70;0.70;;;25.40;50.90;;;;;;5091015;28;20105;-66
2022/06/17 04:02:19;;;;;;;0.82;0.82;;;25.50;50.90;;;;;;5090775;28;20107;-66
2022/06/17 04:04:51;;;;;;;1.17;0.90;;;25.50;50.80;;;;;;5090821;28;20044;-66
2022/06/17 04:07:18;;;;;;;1.00;1.00;;;25.50;50.80;;;;;;5090670;28;20098;-66
2022/06/17 04:09:47;;;;;;;0.70;0.70;;;25.50;50.70;;;;;;5091188;28;20094;-66
2022/06/17 04:12:24;;;;;;;1.00;1.00;;;25.50;50.70;;;;;;5111244;28;20102;-66
2022/06/17 04:15:08;;;;;;;0.70;0.70;;;25.60;50.70;;;;;;5111052;28;20083;-66
2022/06/17 04:17:42;;;;;;;0.75;0.75;;;25.60;50.60;;;;;;5111216;28;20082;-66
2022/06/17 04:20:33;;;;;;;0.73;0.70;;;25.60;50.60;;;;;;5111178;28;20483;-66
2022/06/17 04:23:11;;;;;;;0.77;0.77;;;25.60;50.50;;;;;;5102278;28;20105;-66
2022/06/17 04:25:48;;;;;;;0.75;0.75;;;25.60;50.40;;;;;;5095910;28;20366;-66
2022/06/17 04:28:23;;;;;;;1.00;0.90;;;25.70;50.40;;;;;;5094378;28;20489;-66
2022/06/17 04:30:56;;;;;;;0.90;0.90;;;25.70;50.30;;;;;;5090234;28;20083;-66
2022/06/17 04:33:30;;;;;;;0.82;0.82;;;25.70;50.30;;;;;;5090953;28;20110;-66
2022/06/17 04:36:10;;;;;;;0.85;0.85;;;25.70;50.30;;;;;;5090466;28;20048;-66
2022/06/17 04:38:49;;;;;;;0.80;0.80;;;25.70;50.10;;;;;;5090365;28;20094;-66
2022/06/17 04:41:19;;;;;;;1.20;1.10;;;25.70;50.10;;;;;;5090238;28;20461;-67
2022/06/17 04:43:50;;;;;;;1.10;1.00;;;25.80;50.20;;;;;;5091805;28;20123;-66
2022/06/17 04:46:39;;;;;;;1.05;1.05;;;25.80;50.10;;;;;;5100175;28;20051;-66
2022/06/17 04:49:15;;;;;;;2.10;1.20;;;25.80;50.10;;;;;;5110559;28;20533;-66
2022/06/17 04:51:42;;;;;;;1.10;1.10;;;25.80;50.00;;;;;;5107666;28;20518;-66
2022/06/17 04:54:11;;;;;;;1.65;1.00;;;25.90;50.00;;;;;;5098906;28;20075;-66
2022/06/17 04:56:45;;;;;;;2.85;1.35;;;25.90;50.00;;;;;;5090107;28;20460;-66
2022/06/17 04:59:29;;;;;;;1.23;1.23;;;25.90;50.00;;;;;;5095664;28;20043;-67
2022/06/17 05:01:57;;;;;;;2.17;1.27;;;25.90;50.00;;;;;;5089355;28;20044;-66
2022/06/17 05:04:25;;;;;;;1.73;1.63;;;25.90;50.10;;;;;;5089785;28;20056;-66
2022/06/17 05:06:53;;;;;;;3.85;1.88;;;26.00;50.20;;;;;;5099411;28;20082;-66
2022/06/17 05:09:29;;;;;;;2.30;1.63;;;26.00;50.30;;;;;;5098447;27;20093;-66
2022/06/17 05:12:05;;;;;;;2.10;1.90;;;26.00;50.30;;;;;;5089188;28;20043;-65
2022/06/17 05:14:54;;;;;;;1.92;1.83;;;26.00;50.50;;;;;;5098120;28;20071;-65
2022/06/17 05:17:21;;;;;;;4.50;2.45;;;25.80;50.90;;;;;;5088068;28;20083;-65
2022/06/17 05:19:48;;;;;;;3.75;2.83;;;25.70;51.90;;;;;;5087487;28;20094;-65
2022/06/17 05:22:38;;;;;;;6.60;3.88;;;25.30;53.80;;;;;;5089935;28;20052;-66
2022/06/17 05:25:10;;;;;;;;;;;24.90;55.20;;;;;;5094030;28;20040;-66
2022/06/17 05:27:37;;;;;;;7.53;4.18;;;24.40;56.40;;;;;;5085227;28;19955;-66
2022/06/17 05:30:05;;;;;;;8.45;5.22;;;23.90;55.30;;;;;;5089734;27;20047;-65
2022/06/17 05:32:33;;;;;;;5.72;3.28;;;23.50;56.10;;;;;;5092483;27;20039;-67
2022/06/17 05:35:00;;;;;;;6.93;3.28;;;23.30;54.90;;;;;;5091575;27;20227;-67
2022/06/17 05:37:28;;;;;;;4.00;3.53;;;23.10;54.60;;;;;;5088361;27;20056;-63
2022/06/17 05:39:55;;;;;;;3.25;3.03;;;22.80;53.50;;;;;;5085667;28;20047;-64
2022/06/17 05:42:22;;;;;;;4.40;4.00;;;22.50;54.00;;;;;;5088549;28;20070;-66
2022/06/17 05:44:49;;;;;;;5.93;4.10;;;22.40;53.40;;;;;;5089944;28;20548;-68
2022/06/17 05:47:17;;;;;;;5.63;4.50;;;22.10;55.90;;;;;;5088766;28;20054;-65
2022/06/17 05:49:44;;;;;;;4.22;3.83;;;21.80;56.80;;;;;;5088810;28;20036;-65
2022/06/17 05:52:11;;;;;;;6.72;3.95;;;21.70;54.40;;;;;;5090428;28;20047;-66
2022/06/17 05:54:39;;;;;;;11.75;4.47;;;21.50;55.40;;;;;;5087902;28;20048;-64
2022/06/17 05:57:07;;;;;;;8.38;5.10;;;21.30;56.20;;;;;;5088295;28;20064;-66
2022/06/17 05:59:35;;;;;;;7.70;4.60;;;21.10;58.80;;;;;;5083655;28;20051;-67
2022/06/17 06:02:03;;;;;;;12.70;5.00;;;20.80;59.00;;;;;;5081987;28;20480;-66
2022/06/17 06:04:33;;;;;;;8.73;5.05;;;20.70;57.90;;;;;;5077330;28;20090;-65
2022/06/17 06:07:00;;;;;;;8.55;5.13;;;20.50;58.40;;;;;;5080457;28;20058;-66
2022/06/17 06:09:28;;;;;;;7.35;4.50;;;20.30;58.90;;;;;;5082781;28;20502;-66
2022/06/17 06:11:55;;;;;;;5.07;4.57;;;20.10;59.90;;;;;;5083328;28;20104;-67
2022/06/17 06:14:23;;;;;;;6.53;4.43;;;19.90;58.80;;;;;;5088146;28;20427;-65
2022/06/17 06:16:50;;;;;;;4.82;4.07;;;19.70;59.00;;;;;;5086967;28;20051;-68
2022/06/17 06:19:17;;;;;;;4.88;3.80;;;19.60;59.30;;;;;;5083323;28;20047;-69
2022/06/17 06:21:45;;;;;;;5.88;3.60;;;19.60;59.50;;;;;;5084659;28;20048;-68
2022/06/17 06:24:13;;;;;;;4.28;3.00;;;19.50;60.10;;;;;;5084755;27;20117;-67
2022/06/17 06:26:40;;;;;;;4.93;3.75;;;19.50;59.90;;;;;;5087592;28;20051;-68
2022/06/17 06:29:09;;;;;;;5.28;3.53;;;19.30;59.40;;;;;;5081001;28;20499;-66
2022/06/17 06:31:37;;;;;;;3.42;3.13;;;19.30;59.50;;;;;;5082190;28;20051;-68
2022/06/17 06:34:05;;;;;;;4.45;3.55;;;19.10;59.90;;;;;;5082673;28;20076;-68
2022/06/17 06:36:39;;;;;;;6.22;3.90;;;19.00;59.30;;;;;;5076899;28;20055;-67
2022/06/17 06:39:06;;;;;;;5.60;3.65;;;18.90;59.00;;;;;;5080145;28;20082;-68
2022/06/17 06:41:34;;;;;;;3.95;3.63;;;18.80;60.10;;;;;;5086665;28;20488;-69
2022/06/17 06:44:01;;;;;;;3.78;3.17;;;18.70;60.10;;;;;;5084223;28;20917;-68
2022/06/17 06:46:31;;;;;;;3.95;3.40;;;18.60;59.80;;;;;;5084607;28;20135;-68
2022/06/17 06:48:59;;;;;;;6.70;3.47;;;18.50;60.60;;;;;;5084474;28;20039;-62
2022/06/17 06:51:26;;;;;;;14.02;3.88;;;18.40;61.10;;;;;;5089039;28;20160;-63
2022/06/17 06:53:53;;;;;;;3.50;3.17;;;18.40;62.10;;;;;;5092033;28;20500;-62
2022/06/17 06:56:21;;;;;;;4.78;3.50;;;18.40;62.20;;;;;;5093300;28;20492;-64
2022/06/17 06:58:49;;;;;;;3.55;3.20;;;18.40;61.90;;;;;;5092573;28;20504;-69
2022/06/17 07:01:17;;;;;;;3.75;3.13;;;18.30;60.80;;;;;;5094495;28;20051;-68
2022/06/17 07:03:44;;;;;;;5.97;3.75;;;18.30;61.50;;;;;;5086697;28;20048;-69
2022/06/17 07:06:12;;;;;;;6.68;3.35;;;18.20;61.40;;;;;;5091488;28;20068;-69
2022/06/17 07:08:40;;;;;;;8.70;4.13;;;18.20;61.10;;;;;;5097168;28;20108;-69
2022/06/17 07:11:09;;;;;;;6.45;4.10;;;18.20;62.70;;;;;;5094875;27;20040;-69
2022/06/17 07:13:42;;;;;;;3.80;3.50;;;18.20;62.10;;;;;;5090791;28;20075;-69
2022/06/17 07:16:11;;;;;;;4.70;3.55;;;18.20;61.60;;;;;;5089324;28;20070;-70
2022/06/17 07:18:39;;;;;;;4.75;3.50;;;18.20;62.40;;;;;;5092716;28;20048;-70
2022/06/17 07:21:10;;;;;;;4.05;3.60;;;18.20;63.10;;;;;;5083125;28;20515;-67
2022/06/17 07:23:43;;;;;;;6.25;3.63;;;18.20;62.70;;;;;;5091577;28;20059;-69
2022/06/17 07:26:21;;;;;;;4.45;3.30;;;18.20;63.60;;;;;;5088941;28;20558;-68
2022/06/17 07:28:51;;;;;;;4.88;3.65;;;18.30;63.10;;;;;;5094329;28;20051;-68
2022/06/17 07:31:21;;;;;;;4.80;3.63;;;18.40;63.20;;;;;;5099690;28;20565;-67
2022/06/17 07:33:49;;;;;;;4.63;3.83;;;18.40;61.60;;;;;;5088991;28;20051;-67
2022/06/17 07:41:58;;;;;;;5.78;3.50;;;18.50;63.00;;;;;;5092097;28;20046;-66
2022/06/17 07:44:26;;;;;;;4.03;2.80;;;18.50;62.80;;;;;;5083712;28;20136;-67
2022/06/17 07:46:53;;;;;;;6.60;3.72;;;18.60;62.10;;;;;;5083876;28;20052;-71
2022/06/17 07:49:20;;;;;;;3.88;3.58;;;18.60;62.20;;;;;;5091495;28;20048;-70
2022/06/17 07:51:48;;;;;;;4.60;3.60;;;18.60;63.20;;;;;;5088918;27;20186;-71
2022/06/17 07:54:16;;;;;;;5.55;3.83;;;18.60;62.90;;;;;;5084295;28;20040;-68
2022/06/17 07:56:43;;;;;;;3.80;3.13;;;18.60;63.50;;;;;;5079995;27;20415;-68
2022/06/17 07:59:11;;;;;;;4.40;3.33;;;18.70;63.90;;;;;;5093012;28;20055;-65
2022/06/17 08:01:38;;;;;;;3.50;3.20;;;18.80;63.90;;;;;;5068021;28;20044;-70
2022/06/17 08:04:06;;;;;;;7.28;3.20;;;18.80;63.50;;;;;;5085696;28;20548;-67
2022/06/17 08:06:34;;;;;;;3.88;3.30;;;18.90;63.40;;;;;;5082601;28;20057;-66
2022/06/17 08:09:03;;;;;;;3.75;3.33;;;18.90;63.50;;;;;;5077161;28;20048;-66
2022/06/17 08:11:30;;;;;;;6.30;3.90;;;19.00;63.20;;;;;;5086200;28;20435;-64
2022/06/17 08:13:57;;;;;;;4.15;3.25;;;19.10;63.40;;;;;;5083973;28;20517;-68
2022/06/17 08:16:24;;;;;;;3.90;3.22;;;19.10;63.20;;;;;;5082995;28;20039;-64
2022/06/17 08:18:52;;;;;;;7.28;3.95;;;19.20;63.20;;;;;;5083105;28;20048;-66
2022/06/17 08:21:19;;;;;;;8.90;3.50;;;19.20;63.20;;;;;;5086989;28;20052;-69
2022/06/17 08:24:08;;;;;;;5.93;3.10;;;19.30;62.90;;;;;;5084888;28;20051;-66
2022/06/17 08:26:35;;;;;;;4.70;3.75;;;19.30;62.60;;;;;;5079041;28;20055;-63
2022/06/17 08:29:03;;;;;;;3.03;2.70;;;19.30;62.60;;;;;;5087416;27;20152;-64
2022/06/17 08:31:31;;;;;;;4.47;3.63;;;19.30;62.30;;;;;;5084358;28;20051;-67
2022/06/17 08:33:58;;;;;;;4.30;2.85;;;19.40;62.30;;;;;;5085638;27;20162;-66
2022/06/17 08:36:28;;;;;;;3.25;2.95;;;19.40;62.00;;;;;;5091758;28;20056;-65
2022/06/17 08:39:10;;;;;;;3.05;2.80;;;19.40;61.90;;;;;;5093955;27;20960;-65
2022/06/17 08:42:00;;;;;;;3.22;2.92;;;19.40;62.10;;;;;;5089277;27;20040;-64
2022/06/17 08:44:44;;;;;;;3.53;3.15;;;19.40;61.70;;;;;;5089085;28;20405;-65
2022/06/17 08:47:37;;;;;;;3.38;3.08;;;19.40;62.00;;;;;;5095994;27;20062;-67
2022/06/17 08:50:33;;;;;;;6.22;3.08;;;19.50;61.80;;;;;;5093558;27;20039;-66
2022/06/17 08:53:31;;;;;;;4.03;3.00;;;19.50;61.40;;;;;;5091363;28;20400;-65
2022/06/17 08:56:32;;;;;;;4.20;2.70;;;19.50;61.60;;;;;;5096017;27;20381;-66
2022/06/17 08:59:14;;;;;;;5.50;3.90;;;19.50;61.80;;;;;;5094905;27;20488;-67
2022/06/17 09:02:07;;;;;;;7.13;4.35;;;19.50;61.90;;;;;;5089134;28;20112;-69
2022/06/17 09:04:54;;;;;;;6.55;3.85;;;19.50;62.20;;;;;;5091039;28;20545;-67
2022/06/17 09:07:47;;;;;;;9.07;4.55;;;19.50;62.10;;;;;;5097172;27;20449;-67
2022/06/17 09:10:57;;;;;;;3.67;3.10;;;19.50;62.10;;;;;;5092712;27;20142;-67
2022/06/17 09:13:56;;;;;;;4.57;3.25;;;19.50;61.80;;;;;;5087490;28;20047;-67
2022/06/17 09:16:55;;;;;;;3.83;3.38;;;19.60;61.80;;;;;;5095641;28;20105;-67
2022/06/17 09:19:29;;;;;;;3.72;3.05;;;19.50;61.80;;;;;;5089528;28;20142;-63
2022/06/17 09:22:13;;;;;;;3.17;2.88;;;19.60;62.30;;;;;;5088809;28;20047;-64
2022/06/17 09:24:43;;;;;;;3.33;3.03;;;19.60;62.40;;;;;;5089180;28;20050;-67
2022/06/17 09:27:26;;;;;;;5.88;3.95;;;19.60;62.40;;;;;;5092386;28;20092;-67
2022/06/17 09:30:00;;;;;;;4.50;3.30;;;19.60;62.30;;;;;;5088932;27;20786;-66
2022/06/17 09:32:36;;;;;;;5.07;3.35;;;19.60;62.50;;;;;;5090442;28;20048;-66
2022/06/17 09:35:36;;;;;;;3.42;3.13;;;19.60;62.40;;;;;;5090287;28;20389;-66
2022/06/17 09:38:13;;;;;;;4.22;2.92;;;19.70;62.70;;;;;;5088668;28;20071;-66
2022/06/17 09:40:50;;;;;;;3.00;2.75;;;19.70;62.50;;;;;;5093428;28;20495;-66
2022/06/17 09:43:37;;;;;;;3.28;3.00;;;19.80;62.30;;;;;;5097099;28;20054;-67
2022/06/17 09:46:20;;;;;;;3.30;3.00;;;19.80;62.30;;;;;;5093055;27;20044;-66
2022/06/17 09:49:03;;;;;;;3.47;2.90;;;19.80;62.30;;;;;;5090818;28;20074;-66
2022/06/17 09:51:47;;;;;;;3.03;2.80;;;19.90;62.70;;;;;;5096361;27;20709;-68
2022/06/17 09:54:29;;;;;;;3.88;3.50;;;19.90;62.00;;;;;;5092327;28;20446;-68
2022/06/17 09:57:21;;;;;;;6.13;3.17;;;19.90;61.50;;;;;;5095998;28;20501;-68
2022/06/17 10:00:08;;;;;;;3.28;2.95;;;19.90;61.10;;;;;;5092966;27;20669;-69
2022/06/17 10:02:58;;;;;;;2.45;2.25;;;19.90;60.70;;;;;;5091810;27;20071;-69
2022/06/17 10:05:57;;;;;;;3.22;2.55;;;19.80;60.40;;;;;;5093787;28;20097;-67
2022/06/17 10:08:51;;;;;;;2.67;2.47;;;19.80;60.30;;;;;;5091104;28;20047;-65
2022/06/17 10:11:45;;;;;;;4.45;3.05;;;19.80;60.10;;;;;;5093591;27;20411;-66
2022/06/17 10:14:28;;;;;;;5.60;2.65;;;19.80;60.00;;;;;;5089328;28;20795;-66
2022/06/17 10:20:57;;;;;;;5.50;2.60;;;19.70;60.00;;;;;;5092798;28;20733;-66
2022/06/17 10:23:53;;;;;;;4.38;3.50;;;19.70;59.90;;;;;;5085926;28;20467;-65
2022/06/17 10:26:48;;;;;;;3.17;2.88;;;19.70;60.00;;;;;;5088739;28;20052;-66
2022/06/17 10:29:45;;;;;;;3.92;2.67;;;19.70;59.80;;;;;;5086424;28;20051;-66
2022/06/17 10:32:12;;;;;;;2.60;2.45;;;19.60;59.70;;;;;;5083476;28;21036;-66
2022/06/17 10:34:48;;;;;;;2.80;2.53;;;19.60;60.50;;;;;;5086817;28;20104;-67
2022/06/17 10:37:16;;;;;;;2.90;2.55;;;19.60;60.10;;;;;;5087440;28;20052;-67
2022/06/17 10:40:07;;;;;;;2.88;2.67;;;19.50;60.30;;;;;;5090237;28;20052;-67
2022/06/17 10:42:36;;;;;;;3.38;3.08;;;19.50;60.70;;;;;;5095330;28;20036;-66
2022/06/17 10:45:03;;;;;;;3.08;2.42;;;19.50;61.00;;;;;;5091638;28;20076;-64
2022/06/17 10:48:09;;;;;;;3.75;3.42;;;19.50;60.90;;;;;;5092376;28;20097;-65
2022/06/17 10:50:36;;;;;;;3.80;2.40;;;19.50;60.80;;;;;;5093793;28;20052;-67
2022/06/17 10:53:21;;;;;;;3.00;2.80;;;19.50;61.00;;;;;;5085708;28;20708;-68
2022/06/17 10:55:53;;;;;;;5.13;3.28;;;19.60;65.80;;;;;;5091913;28;20507;-67
2022/06/17 10:58:23;;;;;;;6.53;3.10;;;19.90;65.70;;;;;;5091270;28;20456;-67
2022/06/17 11:00:58;;;;;;;3.42;3.13;;;20.30;64.50;;;;;;5089188;28;20172;-64
2022/06/17 11:03:33;;;;;;;3.53;2.95;;;20.50;63.60;;;;;;5090834;28;20047;-67
2022/06/17 11:06:19;;;;;;;3.20;2.92;;;20.70;62.70;;;;;;5092356;28;20065;-67
2022/06/17 11:08:57;;;;;;;6.70;3.75;;;21.00;62.40;;;;;;5088985;28;20052;-69
2022/06/17 11:15:03;;;;;;;3.72;3.10;;;21.30;61.30;;;;;;5092009;28;20416;-66
2022/06/17 11:17:46;;;;;;;4.18;3.03;;;21.40;60.60;;;;;;5091826;28;20040;-68
2022/06/17 11:20:30;;;;;;;3.47;2.95;;;21.50;60.10;;;;;;5089628;28;20048;-69
2022/06/17 11:23:29;;;;;;;4.30;3.30;;;21.60;59.80;;;;;;5091406;28;20524;-66
2022/06/17 11:26:13;;;;;;;2.58;2.38;;;21.60;59.60;;;;;;5094102;28;20545;-65
2022/06/17 11:28:44;;;;;;;2.50;2.40;;;21.70;59.30;;;;;;5084855;28;20822;-65
2022/06/17 11:31:33;;;;;;;4.22;2.85;;;21.80;59.20;;;;;;5086981;28;20040;-66
2022/06/17 11:34:14;;;;;;;3.08;2.75;;;21.80;59.00;;;;;;5092306;28;20520;-65
2022/06/17 11:37:08;;;;;;;3.50;2.72;;;21.80;58.90;;;;;;5092218;28;20040;-65
2022/06/17 11:39:37;;;;;;;4.57;2.72;;;21.80;56.30;;;;;;5094895;28;20044;-65
2022/06/17 11:42:22;;;;;;;4.50;2.70;;;21.60;56.00;;;;;;5092858;28;20043;-66
2022/06/17 11:45:01;;;;;;;2.78;2.58;;;21.40;56.50;;;;;;5095408;28;20048;-66
2022/06/17 11:47:31;;;;;;;6.55;2.85;;;21.20;56.80;;;;;;5088840;28;20048;-65
2022/06/17 11:50:11;;;;;;;8.23;3.63;;;21.00;57.50;;;;;;5090615;28;20054;-67
2022/06/17 11:52:38;;;;;;;2.88;2.63;;;20.90;58.00;;;;;;5091930;28;20131;-66
2022/06/17 11:55:06;;;;;;;16.27;3.13;;;20.70;58.20;;;;;;5092078;27;20055;-66
2022/06/17 11:57:37;;;;;;;13.25;3.72;;;20.60;58.90;;;;;;5087093;28;20142;-66
2022/06/17 12:00:23;;;;;;;6.95;3.08;;;20.60;58.80;;;;;;5088073;28;20052;-63
2022/06/17 12:02:57;;;;;;;7.53;3.42;;;20.50;59.00;;;;;;5092411;28;20063;-65
2022/06/17 12:05:31;;;;;;;6.82;2.63;;;20.40;58.80;;;;;;5090820;28;20560;-67
2022/06/17 12:08:14;;;;;;;7.70;3.20;;;20.40;58.80;;;;;;5091455;28;20082;-65
2022/06/17 12:10:47;;;;;;;9.00;3.28;;;20.40;58.60;;;;;;5091501;28;20563;-65
2022/06/17 12:13:44;;;;;;;5.93;2.47;;;20.30;58.80;;;;;;5103654;28;20072;-65
2022/06/17 12:16:36;;;;;;;5.75;2.47;;;20.20;58.60;;;;;;5091845;28;20097;-65
2022/06/17 12:19:16;;;;;;;5.22;2.60;;;20.20;58.80;;;;;;5092874;28;20048;-65
2022/06/17 12:22:06;;;;;;;4.13;3.22;;;20.20;58.90;;;;;;5092374;28;20047;-65
2022/06/17 12:25:12;;;;;;;5.77;2.60;;;20.20;59.10;;;;;;5100012;28;20044;-66
2022/06/17 12:27:55;;;;;;;2.55;2.35;;;20.10;59.10;;;;;;5103491;28;20048;-65
2022/06/17 12:30:49;;;;;;;2.63;2.40;;;20.10;59.30;;;;;;5097106;28;20079;-66
2022/06/17 12:33:36;;;;;;;2.67;2.47;;;20.10;59.30;;;;;;5098855;28;20122;-65
2022/06/17 12:36:22;;;;;;;4.85;2.72;;;20.10;59.50;;;;;;5108043;28;20476;-65
2022/06/17 12:38:59;;;;;;;4.05;2.72;;;20.10;59.50;;;;;;5094031;28;20105;-65
2022/06/17 12:41:43;;;;;;;4.13;2.50;;;20.10;59.50;;;;;;5067493;28;20401;-65
2022/06/17 12:44:30;;;;;;;2.75;2.53;;;20.00;59.80;;;;;;5098486;28;20097;-64
2022/06/17 12:47:21;;;;;;;2.30;2.15;;;20.10;60.00;;;;;;5081793;28;20071;-64
2022/06/17 12:53:41;;;;;;;6.35;2.70;;;20.10;59.90;;;;;;5089602;28;20036;-65
2022/06/17 12:56:31;;;;;;;2.78;2.58;;;20.10;59.80;;;;;;5092806;28;20449;-63
2022/06/17 12:59:27;;;;;;;3.65;2.38;;;20.20;60.30;;;;;;5094439;28;20468;-63
2022/06/17 13:02:07;;;;;;;5.63;2.83;;;20.20;60.10;;;;;;5088680;28;20109;-64
2022/06/17 13:04:48;;;;;;;2.55;2.38;;;20.20;60.20;;;;;;5098190;28;20044;-64
2022/06/17 13:07:37;;;;;;;3.72;3.03;;;20.20;60.10;;;;;;5092126;28;20098;-63
2022/06/17 13:13:33;;;;;;;3.53;2.55;;;20.20;60.30;;;;;;5089918;28;20044;-65
2022/06/17 13:16:21;;;;;;;2.65;2.28;;;20.20;60.00;;;;;;5089485;28;20104;-64
2022/06/17 13:19:02;;;;;;;3.70;2.20;;;20.20;60.30;;;;;;5088948;28;20046;-64
2022/06/17 13:21:49;;;;;;;3.08;2.85;;;20.20;60.00;;;;;;5088255;28;20101;-64
2022/06/17 13:24:42;;;;;;;3.97;2.28;;;20.20;60.10;;;;;;5088981;28;20048;-64
2022/06/17 13:27:28;;;;;;;4.07;2.38;;;20.10;59.90;;;;;;5089643;28;20048;-64
2022/06/17 13:30:24;;;;;;;3.13;2.38;;;20.10;59.80;;;;;;5089377;28;20040;-64
2022/06/17 13:33:00;;;;;;;4.40;2.85;;;20.10;59.90;;;;;;5089527;28;20545;-64
2022/06/17 13:35:33;;;;;;;2.63;2.45;;;20.10;59.80;;;;;;5089316;28;20488;-64
2022/06/17 13:38:16;;;;;;;3.50;2.17;;;20.10;59.80;;;;;;5089482;28;20080;-63
2022/06/17 13:40:49;;;;;;;3.80;2.80;;;20.10;60.20;;;;;;5087684;28;20048;-64
2022/06/17 13:43:22;;;;;;;2.95;2.72;;;20.10;59.60;;;;;;5089395;28;20047;-64
2022/06/17 13:46:07;;;;;;;2.70;2.50;;;20.10;59.60;;;;;;5087972;28;20146;-64
2022/06/17 13:48:56;;;;;;;2.50;2.30;;;20.10;59.80;;;;;;5087598;28;20055;-64
2022/06/17 13:51:37;;;;;;;4.78;2.88;;;20.00;59.90;;;;;;5088945;28;20044;-64
2022/06/17 13:54:24;;;;;;;3.30;2.75;;;20.00;59.90;;;;;;5089203;28;20507;-64
2022/06/17 13:57:25;;;;;;;2.72;2.53;;;20.00;59.90;;;;;;5087658;28;20561;-64
2022/06/17 14:00:18;;;;;;;2.45;2.33;;;20.00;59.90;;;;;;5087893;28;20101;-64